createdAt,value
2023-11-25T00:00:03.935Z,942.29
2023-11-25T00:00:14.908Z,942.25
2023-11-25T00:00:25.821Z,942.23
2023-11-25T00:00:36.419Z,942.21
2023-11-25T00:00:47.410Z,942.20
2023-11-25T00:00:58.175Z,942.22
2023-11-25T00:01:09.476Z,942.24
2023-11-25T00:01:19.934Z,942.25
2023-11-25T00:01:30.799Z,942.23
2023-11-25T00:01:41.456Z,942.22
2023-11-25T00:01:51.939Z,942.21
2023-11-25T00:02:02.814Z,942.22
2023-11-25T00:02:13.393Z,942.20
2023-11-25T00:02:24.422Z,942.21
2023-11-25T00:02:35.198Z,942.22
2023-11-25T00:02:46.201Z,942.21
2023-11-25T00:02:57.202Z,942.21
2023-11-25T00:03:07.942Z,942.23
2023-11-25T00:03:19.027Z,942.24
2023-11-25T00:03:29.999Z,942.19
2023-11-25T00:03:40.835Z,942.19
2023-11-25T00:03:51.286Z,942.20
2023-11-25T00:04:02.295Z,942.23
2023-11-25T00:04:13.037Z,942.25
2023-11-25T00:04:24.078Z,942.25
2023-11-25T00:04:35.067Z,942.24
2023-11-25T00:04:45.793Z,942.26
2023-11-25T00:04:56.848Z,942.27
2023-11-25T00:05:07.809Z,942.27
2023-11-25T00:05:18.584Z,942.26
2023-11-25T00:05:29.631Z,942.26
2023-11-25T00:05:40.601Z,942.23
2023-11-25T00:05:51.364Z,942.24
2023-11-25T00:06:02.406Z,942.23
2023-11-25T00:06:13.390Z,942.24
2023-11-25T00:06:24.162Z,942.25
2023-11-25T00:06:35.211Z,942.27
2023-11-25T00:06:46.171Z,942.29
2023-11-25T00:06:56.933Z,942.29
2023-11-25T00:07:08.013Z,942.26
2023-11-25T00:07:18.981Z,942.26
2023-11-25T00:07:29.776Z,942.28
2023-11-25T00:07:40.332Z,942.26
2023-11-25T00:07:51.257Z,942.24
2023-11-25T00:08:02.020Z,942.22
2023-11-25T00:08:13.068Z,942.20
2023-11-25T00:08:24.041Z,942.20
2023-11-25T00:08:34.801Z,942.22
2023-11-25T00:08:45.844Z,942.21
2023-11-25T00:08:56.813Z,942.23
2023-11-25T00:09:07.695Z,942.23
2023-11-25T00:09:18.137Z,942.23
2023-11-25T00:09:29.091Z,942.23
2023-11-25T00:09:39.862Z,942.23
2023-11-25T00:09:50.905Z,942.19
2023-11-25T00:10:01.925Z,942.20
2023-11-25T00:10:12.784Z,942.21
2023-11-25T00:10:23.839Z,942.21
2023-11-25T00:10:34.813Z,942.18
2023-11-25T00:10:45.732Z,942.20
2023-11-25T00:10:56.273Z,942.17
2023-11-25T00:11:14.707Z,942.16
2023-11-25T00:11:25.693Z,942.20
2023-11-25T00:11:30.381Z,942.23
2023-11-25T00:11:40.243Z,942.24
2023-11-25T00:11:51.007Z,942.23
2023-11-25T00:12:02.049Z,942.16
2023-11-25T00:12:13.022Z,942.15
2023-11-25T00:12:23.775Z,942.16
2023-11-25T00:12:34.820Z,942.16
2023-11-25T00:12:45.804Z,942.16
2023-11-25T00:12:56.555Z,942.17
2023-11-25T00:13:07.778Z,942.17
2023-11-25T00:13:18.233Z,942.16
2023-11-25T00:13:28.999Z,942.16
2023-11-25T00:13:40.038Z,942.15
2023-11-25T00:13:50.966Z,942.12
2023-11-25T00:14:01.732Z,942.13
2023-11-25T00:14:12.824Z,942.07
2023-11-25T00:14:23.742Z,942.10
2023-11-25T00:14:34.574Z,942.10
2023-11-25T00:14:45.560Z,942.13
2023-11-25T00:14:56.529Z,942.13
2023-11-25T00:15:07.292Z,942.13
2023-11-25T00:15:18.335Z,942.12
2023-11-25T00:15:29.302Z,942.12
2023-11-25T00:15:40.136Z,942.12
2023-11-25T00:15:50.767Z,942.15
2023-11-25T00:16:01.874Z,942.15
2023-11-25T00:16:12.659Z,942.16
2023-11-25T00:16:23.698Z,942.16
2023-11-25T00:16:34.736Z,942.16
2023-11-25T00:16:45.566Z,942.14
2023-11-25T00:16:56.232Z,942.14
2023-11-25T00:17:06.668Z,942.14
2023-11-25T00:17:17.436Z,942.15
2023-11-25T00:17:27.983Z,942.15
2023-11-25T00:17:39.002Z,942.15
2023-11-25T00:17:49.775Z,942.17
2023-11-25T00:18:00.811Z,942.12
2023-11-25T00:18:11.802Z,942.16
2023-11-25T00:18:22.549Z,942.17
2023-11-25T00:18:33.594Z,942.15
2023-11-25T00:18:44.562Z,942.16
2023-11-25T00:18:55.324Z,942.15
2023-11-25T00:19:06.451Z,942.15
2023-11-25T00:19:17.381Z,942.13
2023-11-25T00:19:28.144Z,942.11
2023-11-25T00:19:39.194Z,942.14
2023-11-25T00:19:50.136Z,942.14
2023-11-25T00:20:00.905Z,942.16
2023-11-25T00:20:11.938Z,942.15
2023-11-25T00:20:22.921Z,942.15
2023-11-25T00:20:33.678Z,942.13
2023-11-25T00:20:44.740Z,942.11
2023-11-25T00:20:55.700Z,942.12
2023-11-25T00:21:06.464Z,942.10
2023-11-25T00:21:17.507Z,942.09
2023-11-25T00:21:28.493Z,942.10
2023-11-25T00:21:39.279Z,942.11
2023-11-25T00:21:50.304Z,942.09
2023-11-25T00:22:01.279Z,942.07
2023-11-25T00:22:12.039Z,942.09
2023-11-25T00:22:23.108Z,942.09
2023-11-25T00:22:34.056Z,942.09
2023-11-25T00:22:44.805Z,942.10
2023-11-25T00:22:55.861Z,942.12
2023-11-25T00:23:06.821Z,942.14
2023-11-25T00:23:17.581Z,942.11
2023-11-25T00:23:28.629Z,942.09
2023-11-25T00:23:39.594Z,942.04
2023-11-25T00:23:50.358Z,942.06
2023-11-25T00:24:01.475Z,942.06
2023-11-25T00:24:12.375Z,942.07
2023-11-25T00:24:23.153Z,942.10
2023-11-25T00:24:34.193Z,942.11
2023-11-25T00:24:45.158Z,942.08
2023-11-25T00:24:55.934Z,942.07
2023-11-25T00:25:07.037Z,942.04
2023-11-25T00:25:17.992Z,942.06
2023-11-25T00:25:28.766Z,942.07
2023-11-25T00:25:39.810Z,942.09
2023-11-25T00:25:50.745Z,942.10
2023-11-25T00:26:01.525Z,942.08
2023-11-25T00:26:12.569Z,942.06
2023-11-25T00:26:23.528Z,942.05
2023-11-25T00:26:34.295Z,942.07
2023-11-25T00:26:45.336Z,942.10
2023-11-25T00:26:56.304Z,942.11
2023-11-25T00:27:07.067Z,942.10
2023-11-25T00:27:18.112Z,942.09
2023-11-25T00:27:29.074Z,942.10
2023-11-25T00:27:39.843Z,942.08
2023-11-25T00:27:50.885Z,942.10
2023-11-25T00:28:01.884Z,942.10
2023-11-25T00:28:12.677Z,942.06
2023-11-25T00:28:23.724Z,942.03
2023-11-25T00:28:34.718Z,942.02
2023-11-25T00:28:45.470Z,942.03
2023-11-25T00:28:56.487Z,942.03
2023-11-25T00:29:07.472Z,942.01
2023-11-25T00:29:18.227Z,941.99
2023-11-25T00:29:29.270Z,942.00
2023-11-25T00:29:40.235Z,942.00
2023-11-25T00:29:51.000Z,942.01
2023-11-25T00:30:02.055Z,942.01
2023-11-25T00:30:13.012Z,942.01
2023-11-25T00:30:23.778Z,942.04
2023-11-25T00:30:34.864Z,942.04
2023-11-25T00:30:45.832Z,942.04
2023-11-25T00:30:56.631Z,942.06
2023-11-25T00:31:07.872Z,942.03
2023-11-25T00:31:18.347Z,942.02
2023-11-25T00:31:29.137Z,942.02
2023-11-25T00:31:40.159Z,942.02
2023-11-25T00:31:51.102Z,942.02
2023-11-25T00:32:01.864Z,942.02
2023-11-25T00:32:12.906Z,942.03
2023-11-25T00:32:23.873Z,942.04
2023-11-25T00:32:34.666Z,942.01
2023-11-25T00:32:45.695Z,942.00
2023-11-25T00:32:56.716Z,941.99
2023-11-25T00:33:07.511Z,942.00
2023-11-25T00:33:18.027Z,942.00
2023-11-25T00:33:29.030Z,942.01
2023-11-25T00:33:39.813Z,942.00
2023-11-25T00:33:50.876Z,942.02
2023-11-25T00:34:01.961Z,942.01
2023-11-25T00:34:12.798Z,942.04
2023-11-25T00:34:23.296Z,942.04
2023-11-25T00:34:34.290Z,942.03
2023-11-25T00:34:45.032Z,942.07
2023-11-25T00:34:56.082Z,942.06
2023-11-25T00:35:07.176Z,942.04
2023-11-25T00:35:17.890Z,942.01
2023-11-25T00:35:28.934Z,942.00
2023-11-25T00:35:39.901Z,941.98
2023-11-25T00:35:50.664Z,941.99
2023-11-25T00:36:01.731Z,942.02
2023-11-25T00:36:12.724Z,942.00
2023-11-25T00:36:23.460Z,942.00
2023-11-25T00:36:34.515Z,941.93
2023-11-25T00:36:45.490Z,941.96
2023-11-25T00:36:56.255Z,941.97
2023-11-25T00:37:07.342Z,942.01
2023-11-25T00:37:18.319Z,941.96
2023-11-25T00:37:29.062Z,941.94
2023-11-25T00:37:40.105Z,941.96
2023-11-25T00:37:51.059Z,941.98
2023-11-25T00:38:01.838Z,941.97
2023-11-25T00:38:12.873Z,941.95
2023-11-25T00:38:23.855Z,941.97
2023-11-25T00:38:34.670Z,941.99
2023-11-25T00:38:45.150Z,942.01
2023-11-25T00:38:56.114Z,942.04
2023-11-25T00:39:06.872Z,942.02
2023-11-25T00:39:17.922Z,942.04
2023-11-25T00:39:28.886Z,942.05
2023-11-25T00:39:39.644Z,942.03
2023-11-25T00:39:50.692Z,942.01
2023-11-25T00:40:01.827Z,942.02
2023-11-25T00:40:12.662Z,942.00
2023-11-25T00:40:23.716Z,942.00
2023-11-25T00:40:34.742Z,942.02
2023-11-25T00:40:45.518Z,942.00
2023-11-25T00:40:56.538Z,942.03
2023-11-25T00:41:07.501Z,942.02
2023-11-25T00:41:18.352Z,942.01
2023-11-25T00:41:29.401Z,942.00
2023-11-25T00:41:40.360Z,942.02
2023-11-25T00:41:51.137Z,942.03
2023-11-25T00:42:02.180Z,942.02
2023-11-25T00:42:13.152Z,941.96
2023-11-25T00:42:23.911Z,941.94
2023-11-25T00:42:34.962Z,941.92
2023-11-25T00:42:45.916Z,941.96
2023-11-25T00:42:56.687Z,941.95
2023-11-25T00:43:07.819Z,941.98
2023-11-25T00:43:18.784Z,942.01
2023-11-25T00:43:29.589Z,942.02
2023-11-25T00:43:40.751Z,942.03
2023-11-25T00:43:51.224Z,942.03
2023-11-25T00:44:01.918Z,942.03
2023-11-25T00:44:12.970Z,942.03
2023-11-25T00:44:23.934Z,942.03
2023-11-25T00:44:34.715Z,942.06
2023-11-25T00:44:45.740Z,942.05
2023-11-25T00:44:56.707Z,942.02
2023-11-25T00:45:07.595Z,942.05
2023-11-25T00:45:18.031Z,942.03
2023-11-25T00:45:29.001Z,941.98
2023-11-25T00:45:39.769Z,941.99
2023-11-25T00:45:50.938Z,942.01
2023-11-25T00:46:01.992Z,941.99
2023-11-25T00:46:12.863Z,941.97
2023-11-25T00:46:23.447Z,941.95
2023-11-25T00:46:34.521Z,942.00
2023-11-25T00:46:45.388Z,942.03
2023-11-25T00:46:55.965Z,942.03
2023-11-25T00:47:07.041Z,942.03
2023-11-25T00:47:17.873Z,942.05
2023-11-25T00:47:28.426Z,942.03
2023-11-25T00:47:39.411Z,941.97
2023-11-25T00:47:50.223Z,942.00
2023-11-25T00:48:01.340Z,942.02
2023-11-25T00:48:12.407Z,942.04
2023-11-25T00:48:23.189Z,942.01
2023-11-25T00:48:34.251Z,942.04
2023-11-25T00:48:45.221Z,942.06
2023-11-25T00:48:55.943Z,942.06
2023-11-25T00:49:07.010Z,942.04
2023-11-25T00:49:17.965Z,942.06
2023-11-25T00:49:28.761Z,942.07
2023-11-25T00:49:39.849Z,942.06
2023-11-25T00:49:50.832Z,942.06
2023-11-25T00:50:01.604Z,942.05
2023-11-25T00:50:12.783Z,942.06
2023-11-25T00:50:23.194Z,942.08
2023-11-25T00:50:33.962Z,942.07
2023-11-25T00:50:45.018Z,942.06
2023-11-25T00:50:55.982Z,942.05
2023-11-25T00:51:06.736Z,942.02
2023-11-25T00:51:17.777Z,942.02
2023-11-25T00:51:28.774Z,942.02
2023-11-25T00:51:39.539Z,942.05
2023-11-25T00:51:50.599Z,942.05
2023-11-25T00:52:01.743Z,942.05
2023-11-25T00:52:12.528Z,942.05
2023-11-25T00:52:23.071Z,942.05
2023-11-25T00:52:34.044Z,941.98
2023-11-25T00:52:44.831Z,941.99
2023-11-25T00:52:55.828Z,942.06
2023-11-25T00:53:06.791Z,942.05
2023-11-25T00:53:17.552Z,942.02
2023-11-25T00:53:28.604Z,942.01
2023-11-25T00:53:39.586Z,942.04
2023-11-25T00:53:50.352Z,942.08
2023-11-25T00:54:01.377Z,942.03
2023-11-25T00:54:12.342Z,942.00
2023-11-25T00:54:23.107Z,942.02
2023-11-25T00:54:34.152Z,942.03
2023-11-25T00:54:45.116Z,942.04
2023-11-25T00:54:55.882Z,942.03
2023-11-25T00:55:07.020Z,942.05
2023-11-25T00:55:17.575Z,942.05
2023-11-25T00:55:28.351Z,942.05
2023-11-25T00:55:39.397Z,942.03
2023-11-25T00:55:50.402Z,942.05
2023-11-25T00:56:01.139Z,942.01
2023-11-25T00:56:12.182Z,942.02
2023-11-25T00:56:23.147Z,942.03
2023-11-25T00:56:33.971Z,942.05
2023-11-25T00:56:44.473Z,942.09
2023-11-25T00:56:55.445Z,942.12
2023-11-25T00:57:06.217Z,942.11
2023-11-25T00:57:17.269Z,942.13
2023-11-25T00:57:28.225Z,942.17
2023-11-25T00:57:39.019Z,942.18
2023-11-25T00:57:50.041Z,942.14
2023-11-25T00:58:00.996Z,942.02
2023-11-25T00:58:11.787Z,941.99
2023-11-25T00:58:22.853Z,942.02
2023-11-25T00:58:33.961Z,942.09
2023-11-25T00:58:44.784Z,942.13
2023-11-25T00:58:55.248Z,942.14
2023-11-25T00:59:06.221Z,942.17
2023-11-25T00:59:16.982Z,942.17
2023-11-25T00:59:28.031Z,942.16
2023-11-25T00:59:38.992Z,942.13
2023-11-25T00:59:49.758Z,942.09
2023-11-25T01:00:00.806Z,942.10
2023-11-25T01:00:11.793Z,942.19
2023-11-25T01:00:22.538Z,942.14
2023-11-25T01:00:33.575Z,942.15
2023-11-25T01:00:44.550Z,942.12
2023-11-25T01:00:55.310Z,942.14
2023-11-25T01:01:05.935Z,942.12
2023-11-25T01:01:16.933Z,942.11
2023-11-25T01:01:27.743Z,942.15
2023-11-25T01:01:38.295Z,942.16
2023-11-25T01:01:49.413Z,942.19
2023-11-25T01:02:00.276Z,942.20
2023-11-25T01:02:10.825Z,942.20
2023-11-25T01:02:21.895Z,942.17
2023-11-25T01:02:32.835Z,942.19
2023-11-25T01:02:43.506Z,942.19
2023-11-25T01:02:54.072Z,942.18
2023-11-25T01:03:04.998Z,942.18
2023-11-25T01:03:15.567Z,942.16
2023-11-25T01:03:26.593Z,942.16
2023-11-25T01:03:37.497Z,942.14
2023-11-25T01:03:48.084Z,942.15
2023-11-25T01:03:58.668Z,942.19
2023-11-25T01:04:09.464Z,942.21
2023-11-25T01:04:20.500Z,942.20
2023-11-25T01:04:31.464Z,942.13
2023-11-25T01:04:42.300Z,942.15
2023-11-25T01:04:52.805Z,942.15
2023-11-25T01:05:03.774Z,942.16
2023-11-25T01:05:14.563Z,942.16
2023-11-25T01:05:25.576Z,942.20
2023-11-25T01:05:36.547Z,942.18
2023-11-25T01:05:47.337Z,942.21
2023-11-25T01:05:58.382Z,942.19
2023-11-25T01:06:09.352Z,942.23
2023-11-25T01:06:20.109Z,942.16
2023-11-25T01:06:31.167Z,942.15
2023-11-25T01:06:42.129Z,942.16
2023-11-25T01:06:52.908Z,942.19
2023-11-25T01:07:03.956Z,942.20
2023-11-25T01:07:15.013Z,942.16
2023-11-25T01:07:25.766Z,942.16
2023-11-25T01:07:36.293Z,942.18
2023-11-25T01:07:47.261Z,942.19
2023-11-25T01:07:58.018Z,942.19
2023-11-25T01:08:09.061Z,942.18
2023-11-25T01:08:20.024Z,942.19
2023-11-25T01:08:30.788Z,942.24
2023-11-25T01:08:41.835Z,942.24
2023-11-25T01:08:52.811Z,942.22
2023-11-25T01:09:03.568Z,942.25
2023-11-25T01:09:14.607Z,942.26
2023-11-25T01:09:25.595Z,942.25
2023-11-25T01:09:36.344Z,942.26
2023-11-25T01:09:47.391Z,942.28
2023-11-25T01:09:58.361Z,942.28
2023-11-25T01:10:09.138Z,942.26
2023-11-25T01:10:20.197Z,942.23
2023-11-25T01:10:31.174Z,942.28
2023-11-25T01:10:41.971Z,942.29
2023-11-25T01:10:52.478Z,942.29
2023-11-25T01:11:03.446Z,942.33
2023-11-25T01:11:14.212Z,942.23
2023-11-25T01:11:25.254Z,942.22
2023-11-25T01:11:36.222Z,942.27
2023-11-25T01:11:47.005Z,942.30
2023-11-25T01:11:58.039Z,942.25
2023-11-25T01:12:09.008Z,942.23
2023-11-25T01:12:19.792Z,942.25
2023-11-25T01:12:30.836Z,942.30
2023-11-25T01:12:41.799Z,942.30
2023-11-25T01:12:52.566Z,942.27
2023-11-25T01:13:03.641Z,942.30
2023-11-25T01:13:14.618Z,942.27
2023-11-25T01:13:25.384Z,942.21
2023-11-25T01:13:36.472Z,942.21
2023-11-25T01:13:47.401Z,942.25
2023-11-25T01:13:58.179Z,942.28
2023-11-25T01:14:09.321Z,942.24
2023-11-25T01:14:20.290Z,942.27
2023-11-25T01:14:31.013Z,942.28
2023-11-25T01:14:42.056Z,942.30
2023-11-25T01:14:53.019Z,942.31
2023-11-25T01:15:03.793Z,942.30
2023-11-25T01:15:14.836Z,942.32
2023-11-25T01:15:25.803Z,942.34
2023-11-25T01:15:36.557Z,942.32
2023-11-25T01:15:47.650Z,942.33
2023-11-25T01:15:58.619Z,942.33
2023-11-25T01:16:09.484Z,942.31
2023-11-25T01:16:20.092Z,942.29
2023-11-25T01:16:30.584Z,942.29
2023-11-25T01:16:41.430Z,942.32
2023-11-25T01:16:52.093Z,942.34
2023-11-25T01:17:02.657Z,942.35
2023-11-25T01:17:13.498Z,942.37
2023-11-25T01:17:23.997Z,942.38
2023-11-25T01:17:34.974Z,942.39
2023-11-25T01:17:45.826Z,942.41
2023-11-25T01:17:56.324Z,942.41
2023-11-25T01:18:07.290Z,942.40
2023-11-25T01:18:18.067Z,942.39
2023-11-25T01:18:29.083Z,942.37
2023-11-25T01:18:40.052Z,942.39
2023-11-25T01:18:51.098Z,942.39
2023-11-25T01:19:01.602Z,942.37
2023-11-25T01:19:12.594Z,942.39
2023-11-25T01:19:23.349Z,942.36
2023-11-25T01:19:34.431Z,942.38
2023-11-25T01:19:45.431Z,942.27
2023-11-25T01:19:56.152Z,942.25
2023-11-25T01:20:07.208Z,942.27
2023-11-25T01:20:18.163Z,942.22
2023-11-25T01:20:28.923Z,942.25
2023-11-25T01:20:39.972Z,942.31
2023-11-25T01:20:50.932Z,942.33
2023-11-25T01:21:01.704Z,942.33
2023-11-25T01:21:12.767Z,942.33
2023-11-25T01:21:23.712Z,942.34
2023-11-25T01:21:34.480Z,942.36
2023-11-25T01:21:45.522Z,942.39
2023-11-25T01:21:56.497Z,942.42
2023-11-25T01:22:07.329Z,942.41
2023-11-25T01:22:17.817Z,942.37
2023-11-25T01:22:28.822Z,942.34
2023-11-25T01:22:39.621Z,942.33
2023-11-25T01:22:50.631Z,942.33
2023-11-25T01:23:01.573Z,942.33
2023-11-25T01:23:12.335Z,942.32
2023-11-25T01:23:23.381Z,942.29
2023-11-25T01:23:34.344Z,942.31
2023-11-25T01:23:45.111Z,942.31
2023-11-25T01:23:56.165Z,942.33
2023-11-25T01:24:07.134Z,942.33
2023-11-25T01:24:17.910Z,942.36
2023-11-25T01:24:28.938Z,942.39
2023-11-25T01:24:39.905Z,942.41
2023-11-25T01:24:50.684Z,942.40
2023-11-25T01:25:01.728Z,942.39
2023-11-25T01:25:12.787Z,942.32
2023-11-25T01:25:23.548Z,942.28
2023-11-25T01:25:34.708Z,942.27
2023-11-25T01:25:45.154Z,942.31
2023-11-25T01:25:55.898Z,942.30
2023-11-25T01:26:06.961Z,942.34
2023-11-25T01:26:17.922Z,942.33
2023-11-25T01:26:28.697Z,942.29
2023-11-25T01:26:39.728Z,942.25
2023-11-25T01:26:50.697Z,942.37
2023-11-25T01:27:01.485Z,942.43
2023-11-25T01:27:12.509Z,942.41
2023-11-25T01:27:23.478Z,942.36
2023-11-25T01:27:34.256Z,942.36
2023-11-25T01:27:45.296Z,942.32
2023-11-25T01:27:56.272Z,942.32
2023-11-25T01:28:07.049Z,942.35
2023-11-25T01:28:18.096Z,942.35
2023-11-25T01:28:29.080Z,942.34
2023-11-25T01:28:39.887Z,942.37
2023-11-25T01:28:50.880Z,942.38
2023-11-25T01:29:01.841Z,942.40
2023-11-25T01:29:12.604Z,942.41
2023-11-25T01:29:23.650Z,942.42
2023-11-25T01:29:34.629Z,942.42
2023-11-25T01:29:45.389Z,942.40
2023-11-25T01:29:56.433Z,942.43
2023-11-25T01:30:07.408Z,942.40
2023-11-25T01:30:18.196Z,942.39
2023-11-25T01:30:29.209Z,942.46
2023-11-25T01:30:40.176Z,942.47
2023-11-25T01:30:50.943Z,942.49
2023-11-25T01:31:01.988Z,942.54
2023-11-25T01:31:12.975Z,942.53
2023-11-25T01:31:23.771Z,942.53
2023-11-25T01:31:34.939Z,942.56
2023-11-25T01:31:45.377Z,942.57
2023-11-25T01:31:56.105Z,942.56
2023-11-25T01:32:07.169Z,942.52
2023-11-25T01:32:18.126Z,942.53
2023-11-25T01:32:28.915Z,942.52
2023-11-25T01:32:39.971Z,942.51
2023-11-25T01:32:50.919Z,942.50
2023-11-25T01:33:01.697Z,942.50
2023-11-25T01:33:12.722Z,942.51
2023-11-25T01:33:23.693Z,942.55
2023-11-25T01:33:34.456Z,942.53
2023-11-25T01:33:45.545Z,942.51
2023-11-25T01:33:56.523Z,942.53
2023-11-25T01:34:07.293Z,942.50
2023-11-25T01:34:18.414Z,942.47
2023-11-25T01:34:29.438Z,942.47
2023-11-25T01:34:40.286Z,942.50
2023-11-25T01:34:50.812Z,942.52
2023-11-25T01:35:01.795Z,942.53
2023-11-25T01:35:12.610Z,942.54
2023-11-25T01:35:23.133Z,942.54
2023-11-25T01:35:34.069Z,942.52
2023-11-25T01:35:48.193Z,942.54
2023-11-25T01:35:55.618Z,942.57
2023-11-25T01:36:06.602Z,942.59
2023-11-25T01:36:17.346Z,942.58
2023-11-25T01:36:28.397Z,942.58
2023-11-25T01:36:39.359Z,942.60
2023-11-25T01:36:50.125Z,942.62
2023-11-25T01:37:01.172Z,942.64
2023-11-25T01:37:12.159Z,942.61
2023-11-25T01:37:22.959Z,942.59
2023-11-25T01:37:34.045Z,942.62
2023-11-25T01:37:45.031Z,942.64
2023-11-25T01:37:55.752Z,942.66
2023-11-25T01:38:06.802Z,942.67
2023-11-25T01:38:17.759Z,942.69
2023-11-25T01:38:28.524Z,942.69
2023-11-25T01:38:39.586Z,942.68
2023-11-25T01:38:50.542Z,942.68
2023-11-25T01:39:01.300Z,942.67
2023-11-25T01:39:12.342Z,942.67
2023-11-25T01:39:23.309Z,942.64
2023-11-25T01:39:34.074Z,942.66
2023-11-25T01:39:45.118Z,942.64
2023-11-25T01:39:56.082Z,942.65
2023-11-25T01:40:07.147Z,942.66
2023-11-25T01:40:17.693Z,942.64
2023-11-25T01:40:28.651Z,942.61
2023-11-25T01:40:39.447Z,942.63
2023-11-25T01:40:50.456Z,942.63
2023-11-25T01:41:03.808Z,942.64
2023-11-25T01:41:12.217Z,942.66
2023-11-25T01:41:23.269Z,942.67
2023-11-25T01:41:34.283Z,942.67
2023-11-25T01:41:45.366Z,942.70
2023-11-25T01:41:56.070Z,942.71
2023-11-25T01:42:06.988Z,942.73
2023-11-25T01:42:17.771Z,942.78
2023-11-25T01:42:28.812Z,942.80
2023-11-25T01:42:39.781Z,942.82
2023-11-25T01:42:50.862Z,942.84
2023-11-25T01:43:01.908Z,942.84
2023-11-25T01:43:12.899Z,942.88
2023-11-25T01:43:23.657Z,942.91
2023-11-25T01:43:34.740Z,942.91
2023-11-25T01:43:45.724Z,942.92
2023-11-25T01:43:56.460Z,942.90
2023-11-25T01:44:07.478Z,942.87
2023-11-25T01:44:18.441Z,942.84
2023-11-25T01:44:29.212Z,942.84
2023-11-25T01:44:40.252Z,942.83
2023-11-25T01:44:51.219Z,942.87
2023-11-25T01:45:01.985Z,942.89
2023-11-25T01:45:13.027Z,942.86
2023-11-25T01:45:23.995Z,942.90
2023-11-25T01:45:34.757Z,942.91
2023-11-25T01:45:46.081Z,942.86
2023-11-25T01:45:56.672Z,942.82
2023-11-25T01:46:07.472Z,942.82
2023-11-25T01:46:18.571Z,942.80
2023-11-25T01:46:29.558Z,942.81
2023-11-25T01:46:40.549Z,942.82
2023-11-25T01:46:51.149Z,942.84
2023-11-25T01:47:02.154Z,942.84
2023-11-25T01:47:12.929Z,942.83
2023-11-25T01:47:23.983Z,942.83
2023-11-25T01:47:34.967Z,942.83
2023-11-25T01:47:45.752Z,942.82
2023-11-25T01:47:56.789Z,942.85
2023-11-25T01:48:07.825Z,942.84
2023-11-25T01:48:18.539Z,942.85
2023-11-25T01:48:29.583Z,942.84
2023-11-25T01:48:40.556Z,942.83
2023-11-25T01:48:51.312Z,942.83
2023-11-25T01:49:02.365Z,942.85
2023-11-25T01:49:14.139Z,942.86
2023-11-25T01:49:24.497Z,942.85
2023-11-25T01:49:34.986Z,942.85
2023-11-25T01:49:45.960Z,942.88
2023-11-25T01:49:56.727Z,942.90
2023-11-25T01:50:07.920Z,942.88
2023-11-25T01:50:18.321Z,942.88
2023-11-25T01:50:29.097Z,942.84
2023-11-25T01:50:40.128Z,942.83
2023-11-25T01:50:51.095Z,942.78
2023-11-25T01:51:01.869Z,942.79
2023-11-25T01:51:12.911Z,942.85
2023-11-25T01:51:23.870Z,942.86
2023-11-25T01:51:34.634Z,942.86
2023-11-25T01:51:45.697Z,942.88
2023-11-25T01:51:56.672Z,942.86
2023-11-25T01:52:07.418Z,942.83
2023-11-25T01:52:18.503Z,942.82
2023-11-25T01:52:29.484Z,942.83
2023-11-25T01:52:40.268Z,942.82
2023-11-25T01:52:50.788Z,942.84
2023-11-25T01:53:01.761Z,942.84
2023-11-25T01:53:12.516Z,942.84
2023-11-25T01:53:23.565Z,942.85
2023-11-25T01:53:34.527Z,942.85
2023-11-25T01:53:45.293Z,942.83
2023-11-25T01:53:56.343Z,942.83
2023-11-25T01:54:07.312Z,942.85
2023-11-25T01:54:18.152Z,942.85
2023-11-25T01:54:28.631Z,942.85
2023-11-25T01:54:39.613Z,942.85
2023-11-25T01:54:50.360Z,942.87
2023-11-25T01:55:01.406Z,942.88
2023-11-25T01:55:12.431Z,942.88
2023-11-25T01:55:23.372Z,942.89
2023-11-25T01:55:33.947Z,942.90
2023-11-25T01:55:44.915Z,942.94
2023-11-25T01:55:55.659Z,942.96
2023-11-25T01:56:06.721Z,942.95
2023-11-25T01:56:17.670Z,942.93
2023-11-25T01:56:28.429Z,942.97
2023-11-25T01:56:39.475Z,942.99
2023-11-25T01:56:50.437Z,942.97
2023-11-25T01:57:01.222Z,942.96
2023-11-25T01:57:12.245Z,942.99
2023-11-25T01:57:23.223Z,943.00
2023-11-25T01:57:36.705Z,943.06
2023-11-25T01:57:44.575Z,943.03
2023-11-25T01:57:55.534Z,943.06
2023-11-25T01:58:06.363Z,943.05
2023-11-25T01:58:17.385Z,943.05
2023-11-25T01:58:28.348Z,943.06
2023-11-25T01:58:39.105Z,943.12
2023-11-25T01:58:50.144Z,943.15
2023-11-25T01:59:01.093Z,943.14
2023-11-25T01:59:11.892Z,943.13
2023-11-25T01:59:22.896Z,943.13
2023-11-25T01:59:33.912Z,943.10
2023-11-25T01:59:44.628Z,943.07
2023-11-25T01:59:55.673Z,943.06
2023-11-25T02:00:06.645Z,943.02
2023-11-25T02:00:17.406Z,943.01
2023-11-25T02:00:28.449Z,943.05
2023-11-25T02:00:39.413Z,943.08
2023-11-25T02:00:50.177Z,943.09
2023-11-25T02:01:01.248Z,943.10
2023-11-25T02:01:12.229Z,943.12
2023-11-25T02:01:23.021Z,943.11
2023-11-25T02:01:34.110Z,943.10
2023-11-25T02:01:45.285Z,943.07
2023-11-25T02:01:56.528Z,943.08
2023-11-25T02:02:07.280Z,943.12
2023-11-25T02:02:17.797Z,943.14
2023-11-25T02:02:28.667Z,943.17
2023-11-25T02:02:39.376Z,943.13
2023-11-25T02:02:50.113Z,943.15
2023-11-25T02:03:01.129Z,943.17
2023-11-25T02:03:11.737Z,943.20
2023-11-25T02:03:22.702Z,943.22
2023-11-25T02:03:33.481Z,943.19
2023-11-25T02:03:44.549Z,943.16
2023-11-25T02:03:55.486Z,943.16
2023-11-25T02:04:06.341Z,943.19
2023-11-25T02:04:16.890Z,943.18
2023-11-25T02:04:27.882Z,943.19
2023-11-25T02:04:38.718Z,943.20
2023-11-25T02:04:49.299Z,943.23
2023-11-25T02:05:00.378Z,943.22
2023-11-25T02:05:11.194Z,943.22
2023-11-25T02:05:22.404Z,943.22
2023-11-25T02:05:32.885Z,943.20
2023-11-25T02:05:43.651Z,943.18
2023-11-25T02:05:54.685Z,943.19
2023-11-25T02:06:05.652Z,943.22
2023-11-25T02:06:16.418Z,943.23
2023-11-25T02:06:27.458Z,943.22
2023-11-25T02:06:38.428Z,943.25
2023-11-25T02:06:49.189Z,943.23
2023-11-25T02:07:00.228Z,943.24
2023-11-25T02:07:11.204Z,943.22
2023-11-25T02:07:22.006Z,943.18
2023-11-25T02:07:33.050Z,943.15
2023-11-25T02:07:44.021Z,943.15
2023-11-25T02:07:54.766Z,943.17
2023-11-25T02:08:05.801Z,943.17
2023-11-25T02:08:16.766Z,943.15
2023-11-25T02:08:27.529Z,943.18
2023-11-25T02:08:38.579Z,943.21
2023-11-25T02:08:49.602Z,943.23
2023-11-25T02:09:00.323Z,943.22
2023-11-25T02:09:11.362Z,943.24
2023-11-25T02:09:22.315Z,943.23
2023-11-25T02:09:33.085Z,943.23
2023-11-25T02:09:44.130Z,943.25
2023-11-25T02:09:55.089Z,943.25
2023-11-25T02:10:05.946Z,943.24
2023-11-25T02:10:16.499Z,943.23
2023-11-25T02:10:27.503Z,943.24
2023-11-25T02:10:38.301Z,943.23
2023-11-25T02:10:49.320Z,943.26
2023-11-25T02:11:00.266Z,943.22
2023-11-25T02:11:11.049Z,943.22
2023-11-25T02:11:22.090Z,943.24
2023-11-25T02:11:33.057Z,943.26
2023-11-25T02:11:43.810Z,943.22
2023-11-25T02:11:54.863Z,943.15
2023-11-25T02:12:05.831Z,943.24
2023-11-25T02:12:16.588Z,943.26
2023-11-25T02:12:27.637Z,943.28
2023-11-25T02:12:38.612Z,943.29
2023-11-25T02:12:49.375Z,943.29
2023-11-25T02:13:00.429Z,943.29
2023-11-25T02:13:11.444Z,943.31
2023-11-25T02:13:23.325Z,943.32
2023-11-25T02:13:33.030Z,943.34
2023-11-25T02:13:44.009Z,943.32
2023-11-25T02:13:54.793Z,943.30
2023-11-25T02:14:05.815Z,943.29
2023-11-25T02:14:16.844Z,943.26
2023-11-25T02:14:27.844Z,943.30
2023-11-25T02:14:38.558Z,943.33
2023-11-25T02:14:49.525Z,943.34
2023-11-25T02:15:00.289Z,943.37
2023-11-25T02:15:11.344Z,943.39
2023-11-25T02:15:22.299Z,943.44
2023-11-25T02:15:33.062Z,943.39
2023-11-25T02:15:44.111Z,943.30
2023-11-25T02:15:55.082Z,943.35